sensor_id;sensor_type;location;lat;lon;timestamp;P1;durP1;ratioP1;P2;durP2;ratioP2
71763;SDS011;59602;52.142;5.408;2023-06-22T00:02:15;5.80;;;3.85;;
71763;SDS011;59602;52.142;5.408;2023-06-22T00:04:42;7.50;;;4.50;;
71763;SDS011;59602;52.142;5.408;2023-06-22T00:07:08;5.60;;;4.03;;
71763;SDS011;59602;52.142;5.408;2023-06-22T00:09:35;6.13;;;4.13;;
71763;SDS011;59602;52.142;5.408;2023-06-22T00:12:02;8.07;;;4.45;;
71763;SDS011;59602;52.142;5.408;2023-06-22T00:14:29;7.65;;;4.07;;
71763;SDS011;59602;52.142;5.408;2023-06-22T00:16:56;8.60;;;4.60;;
71763;SDS011;59602;52.142;5.408;2023-06-22T00:19:24;5.95;;;3.80;;
71763;SDS011;59602;52.142;5.408;2023-06-22T00:21:51;8.00;;;4.60;;
71763;SDS011;59602;52.142;5.408;2023-06-22T00:24:19;6.45;;;4.43;;
71763;SDS011;59602;52.142;5.408;2023-06-22T00:26:48;8.35;;;4.70;;
71763;SDS011;59602;52.142;5.408;2023-06-22T00:29:15;7.63;;;4.30;;
71763;SDS011;59602;52.142;5.408;2023-06-22T00:31:41;7.80;;;4.25;;
71763;SDS011;59602;52.142;5.408;2023-06-22T00:34:09;7.03;;;4.22;;
71763;SDS011;59602;52.142;5.408;2023-06-22T00:36:36;8.50;;;4.82;;
71763;SDS011;59602;52.142;5.408;2023-06-22T00:39:03;6.25;;;4.35;;
71763;SDS011;59602;52.142;5.408;2023-06-22T00:41:30;6.77;;;4.67;;
71763;SDS011;59602;52.142;5.408;2023-06-22T00:43:56;8.50;;;4.97;;
71763;SDS011;59602;52.142;5.408;2023-06-22T00:46:23;7.63;;;4.90;;
71763;SDS011;59602;52.142;5.408;2023-06-22T00:48:52;8.05;;;4.40;;
71763;SDS011;59602;52.142;5.408;2023-06-22T00:51:19;7.65;;;4.40;;
71763;SDS011;59602;52.142;5.408;2023-06-22T00:53:50;8.93;;;4.63;;
71763;SDS011;59602;52.142;5.408;2023-06-22T00:56:19;7.47;;;4.50;;
71763;SDS011;59602;52.142;5.408;2023-06-22T00:58:50;6.43;;;4.18;;
71763;SDS011;59602;52.142;5.408;2023-06-22T01:01:19;7.32;;;4.35;;
71763;SDS011;59602;52.142;5.408;2023-06-22T01:03:50;8.20;;;4.47;;
71763;SDS011;59602;52.142;5.408;2023-06-22T01:06:20;9.83;;;5.13;;
71763;SDS011;59602;52.142;5.408;2023-06-22T01:08:58;6.63;;;3.97;;
71763;SDS011;59602;52.142;5.408;2023-06-22T01:11:36;7.80;;;4.22;;
71763;SDS011;59602;52.142;5.408;2023-06-22T01:14:12;7.10;;;4.45;;
71763;SDS011;59602;52.142;5.408;2023-06-22T01:16:44;6.85;;;3.88;;
71763;SDS011;59602;52.142;5.408;2023-06-22T01:19:20;8.90;;;4.23;;
71763;SDS011;59602;52.142;5.408;2023-06-22T01:21:58;8.30;;;4.18;;
71763;SDS011;59602;52.142;5.408;2023-06-22T01:24:27;6.70;;;4.13;;
71763;SDS011;59602;52.142;5.408;2023-06-22T01:27:16;6.40;;;4.03;;
71763;SDS011;59602;52.142;5.408;2023-06-22T01:29:56;7.07;;;3.95;;
71763;SDS011;59602;52.142;5.408;2023-06-22T01:32:28;7.20;;;4.50;;
71763;SDS011;59602;52.142;5.408;2023-06-22T01:35:00;7.30;;;4.70;;
71763;SDS011;59602;52.142;5.408;2023-06-22T01:37:29;7.22;;;3.83;;
71763;SDS011;59602;52.142;5.408;2023-06-22T01:39:58;7.47;;;4.30;;
71763;SDS011;59602;52.142;5.408;2023-06-22T01:42:26;7.28;;;4.43;;
71763;SDS011;59602;52.142;5.408;2023-06-22T01:44:53;6.67;;;4.37;;
71763;SDS011;59602;52.142;5.408;2023-06-22T01:47:21;7.45;;;4.63;;
71763;SDS011;59602;52.142;5.408;2023-06-22T01:49:49;8.05;;;4.30;;
71763;SDS011;59602;52.142;5.408;2023-06-22T01:52:18;7.40;;;4.78;;
71763;SDS011;59602;52.142;5.408;2023-06-22T01:54:47;9.20;;;4.18;;
71763;SDS011;59602;52.142;5.408;2023-06-22T01:57:14;8.77;;;4.47;;
71763;SDS011;59602;52.142;5.408;2023-06-22T02:02:38;8.02;;;4.85;;
71763;SDS011;59602;52.142;5.408;2023-06-22T02:05:09;7.82;;;4.65;;
71763;SDS011;59602;52.142;5.408;2023-06-22T02:07:41;7.35;;;4.13;;
71763;SDS011;59602;52.142;5.408;2023-06-22T02:10:13;8.47;;;5.03;;
71763;SDS011;59602;52.142;5.408;2023-06-22T02:12:43;8.70;;;4.78;;
71763;SDS011;59602;52.142;5.408;2023-06-22T02:15:11;7.93;;;4.18;;
71763;SDS011;59602;52.142;5.408;2023-06-22T02:17:40;7.43;;;4.28;;
71763;SDS011;59602;52.142;5.408;2023-06-22T02:20:12;7.53;;;3.92;;
71763;SDS011;59602;52.142;5.408;2023-06-22T02:22:39;6.57;;;4.33;;
71763;SDS011;59602;52.142;5.408;2023-06-22T02:25:07;6.38;;;4.25;;
71763;SDS011;59602;52.142;5.408;2023-06-22T02:27:34;7.32;;;4.60;;
71763;SDS011;59602;52.142;5.408;2023-06-22T02:30:01;8.07;;;4.22;;
71763;SDS011;59602;52.142;5.408;2023-06-22T02:32:27;6.95;;;4.07;;
71763;SDS011;59602;52.142;5.408;2023-06-22T02:34:54;7.77;;;4.07;;
71763;SDS011;59602;52.142;5.408;2023-06-22T02:37:21;7.30;;;4.05;;
71763;SDS011;59602;52.142;5.408;2023-06-22T02:39:52;5.95;;;3.95;;
71763;SDS011;59602;52.142;5.408;2023-06-22T02:42:18;8.88;;;4.63;;
71763;SDS011;59602;52.142;5.408;2023-06-22T02:44:47;5.82;;;3.75;;
71763;SDS011;59602;52.142;5.408;2023-06-22T02:47:13;8.03;;;4.50;;
71763;SDS011;59602;52.142;5.408;2023-06-22T02:49:40;7.60;;;4.35;;
71763;SDS011;59602;52.142;5.408;2023-06-22T02:52:08;8.23;;;4.65;;
71763;SDS011;59602;52.142;5.408;2023-06-22T02:54:34;7.43;;;4.50;;
71763;SDS011;59602;52.142;5.408;2023-06-22T02:57:01;8.35;;;4.80;;
71763;SDS011;59602;52.142;5.408;2023-06-22T02:59:29;10.23;;;5.30;;
71763;SDS011;59602;52.142;5.408;2023-06-22T03:01:59;8.45;;;4.90;;
71763;SDS011;59602;52.142;5.408;2023-06-22T03:04:25;8.00;;;4.75;;
71763;SDS011;59602;52.142;5.408;2023-06-22T03:06:52;8.68;;;5.15;;
71763;SDS011;59602;52.142;5.408;2023-06-22T03:09:19;8.02;;;4.38;;
71763;SDS011;59602;52.142;5.408;2023-06-22T03:11:46;7.50;;;4.87;;
71763;SDS011;59602;52.142;5.408;2023-06-22T03:14:13;10.77;;;5.28;;
71763;SDS011;59602;52.142;5.408;2023-06-22T03:16:39;8.82;;;5.85;;
71763;SDS011;59602;52.142;5.408;2023-06-22T03:19:07;9.18;;;5.15;;
71763;SDS011;59602;52.142;5.408;2023-06-22T03:21:34;8.10;;;5.28;;
71763;SDS011;59602;52.142;5.408;2023-06-22T03:24:00;9.43;;;5.13;;
71763;SDS011;59602;52.142;5.408;2023-06-22T03:26:27;7.75;;;4.95;;
71763;SDS011;59602;52.142;5.408;2023-06-22T03:28:55;8.10;;;4.63;;
71763;SDS011;59602;52.142;5.408;2023-06-22T03:31:22;8.13;;;4.70;;
71763;SDS011;59602;52.142;5.408;2023-06-22T03:33:49;8.70;;;4.72;;
71763;SDS011;59602;52.142;5.408;2023-06-22T03:36:17;7.70;;;5.20;;
71763;SDS011;59602;52.142;5.408;2023-06-22T03:38:46;9.10;;;5.07;;
71763;SDS011;59602;52.142;5.408;2023-06-22T03:41:13;9.13;;;4.70;;
71763;SDS011;59602;52.142;5.408;2023-06-22T03:43:39;10.77;;;5.55;;
71763;SDS011;59602;52.142;5.408;2023-06-22T03:46:06;8.45;;;4.88;;
71763;SDS011;59602;52.142;5.408;2023-06-22T03:48:33;9.23;;;5.20;;
71763;SDS011;59602;52.142;5.408;2023-06-22T03:51:01;9.57;;;5.50;;
71763;SDS011;59602;52.142;5.408;2023-06-22T03:53:29;8.93;;;5.22;;
71763;SDS011;59602;52.142;5.408;2023-06-22T03:55:56;8.77;;;5.82;;
71763;SDS011;59602;52.142;5.408;2023-06-22T03:58:23;8.73;;;5.05;;
71763;SDS011;59602;52.142;5.408;2023-06-22T04:00:50;8.60;;;5.00;;
71763;SDS011;59602;52.142;5.408;2023-06-22T04:03:17;9.35;;;5.60;;
71763;SDS011;59602;52.142;5.408;2023-06-22T04:05:45;9.00;;;4.85;;
71763;SDS011;59602;52.142;5.408;2023-06-22T04:08:13;9.57;;;5.60;;
71763;SDS011;59602;52.142;5.408;2023-06-22T04:10:40;7.75;;;4.95;;
71763;SDS011;59602;52.142;5.408;2023-06-22T04:13:07;9.37;;;5.53;;
71763;SDS011;59602;52.142;5.408;2023-06-22T04:15:34;10.10;;;5.88;;
71763;SDS011;59602;52.142;5.408;2023-06-22T04:18:00;9.48;;;5.78;;
71763;SDS011;59602;52.142;5.408;2023-06-22T04:20:27;11.73;;;6.57;;
71763;SDS011;59602;52.142;5.408;2023-06-22T04:22:55;11.27;;;6.95;;
71763;SDS011;59602;52.142;5.408;2023-06-22T04:25:22;11.70;;;7.37;;
71763;SDS011;59602;52.142;5.408;2023-06-22T04:27:48;12.07;;;7.43;;
71763;SDS011;59602;52.142;5.408;2023-06-22T04:30:15;17.02;;;8.00;;
71763;SDS011;59602;52.142;5.408;2023-06-22T04:32:43;12.68;;;8.15;;
71763;SDS011;59602;52.142;5.408;2023-06-22T04:35:11;12.20;;;7.63;;
71763;SDS011;59602;52.142;5.408;2023-06-22T04:37:38;14.13;;;8.20;;
71763;SDS011;59602;52.142;5.408;2023-06-22T04:40:06;13.90;;;8.18;;
71763;SDS011;59602;52.142;5.408;2023-06-22T04:42:34;15.60;;;8.35;;
71763;SDS011;59602;52.142;5.408;2023-06-22T04:45:02;14.48;;;8.25;;
71763;SDS011;59602;52.142;5.408;2023-06-22T04:47:30;14.95;;;9.07;;
71763;SDS011;59602;52.142;5.408;2023-06-22T04:49:56;16.90;;;10.07;;
71763;SDS011;59602;52.142;5.408;2023-06-22T04:52:23;15.43;;;9.43;;
71763;SDS011;59602;52.142;5.408;2023-06-22T04:54:50;16.50;;;10.25;;
71763;SDS011;59602;52.142;5.408;2023-06-22T04:57:21;15.32;;;9.35;;
71763;SDS011;59602;52.142;5.408;2023-06-22T05:00:00;14.90;;;9.82;;
71763;SDS011;59602;52.142;5.408;2023-06-22T05:02:39;16.10;;;9.80;;
71763;SDS011;59602;52.142;5.408;2023-06-22T05:05:06;16.75;;;10.57;;
71763;SDS011;59602;52.142;5.408;2023-06-22T05:07:34;16.92;;;10.45;;
71763;SDS011;59602;52.142;5.408;2023-06-22T05:10:07;17.95;;;10.63;;
71763;SDS011;59602;52.142;5.408;2023-06-22T05:12:33;18.08;;;10.75;;
71763;SDS011;59602;52.142;5.408;2023-06-22T05:15:01;18.70;;;11.83;;
71763;SDS011;59602;52.142;5.408;2023-06-22T05:17:27;20.80;;;12.05;;
71763;SDS011;59602;52.142;5.408;2023-06-22T05:19:54;18.05;;;11.93;;
71763;SDS011;59602;52.142;5.408;2023-06-22T05:22:22;19.80;;;11.98;;
71763;SDS011;59602;52.142;5.408;2023-06-22T05:24:49;19.33;;;12.32;;
71763;SDS011;59602;52.142;5.408;2023-06-22T05:27:16;19.47;;;12.03;;
71763;SDS011;59602;52.142;5.408;2023-06-22T05:29:42;23.50;;;12.65;;
71763;SDS011;59602;52.142;5.408;2023-06-22T05:32:10;18.38;;;12.52;;
71763;SDS011;59602;52.142;5.408;2023-06-22T05:34:37;18.65;;;12.48;;
71763;SDS011;59602;52.142;5.408;2023-06-22T05:37:04;21.15;;;13.80;;
71763;SDS011;59602;52.142;5.408;2023-06-22T05:39:32;20.77;;;13.83;;
71763;SDS011;59602;52.142;5.408;2023-06-22T05:41:59;22.98;;;12.82;;
71763;SDS011;59602;52.142;5.408;2023-06-22T05:44:25;22.13;;;13.27;;
71763;SDS011;59602;52.142;5.408;2023-06-22T05:46:52;20.30;;;13.48;;
71763;SDS011;59602;52.142;5.408;2023-06-22T05:49:18;20.30;;;13.65;;
71763;SDS011;59602;52.142;5.408;2023-06-22T05:51:46;20.40;;;13.63;;
71763;SDS011;59602;52.142;5.408;2023-06-22T05:54:12;22.30;;;14.05;;
71763;SDS011;59602;52.142;5.408;2023-06-22T05:56:42;20.45;;;13.82;;
71763;SDS011;59602;52.142;5.408;2023-06-22T05:59:08;22.10;;;13.82;;
71763;SDS011;59602;52.142;5.408;2023-06-22T06:01:35;23.38;;;14.18;;
71763;SDS011;59602;52.142;5.408;2023-06-22T06:04:03;22.73;;;14.80;;
71763;SDS011;59602;52.142;5.408;2023-06-22T06:06:30;22.15;;;14.77;;
71763;SDS011;59602;52.142;5.408;2023-06-22T06:08:57;23.80;;;13.95;;
71763;SDS011;59602;52.142;5.408;2023-06-22T06:11:24;21.92;;;15.27;;
71763;SDS011;59602;52.142;5.408;2023-06-22T06:13:52;21.77;;;14.75;;
71763;SDS011;59602;52.142;5.408;2023-06-22T06:16:19;21.33;;;13.93;;
71763;SDS011;59602;52.142;5.408;2023-06-22T06:18:45;20.50;;;13.73;;
71763;SDS011;59602;52.142;5.408;2023-06-22T06:21:12;22.85;;;14.50;;
71763;SDS011;59602;52.142;5.408;2023-06-22T06:23:39;22.08;;;14.40;;
71763;SDS011;59602;52.142;5.408;2023-06-22T06:26:07;20.65;;;14.48;;
71763;SDS011;59602;52.142;5.408;2023-06-22T06:28:34;21.47;;;13.97;;
71763;SDS011;59602;52.142;5.408;2023-06-22T06:31:02;20.00;;;13.93;;
71763;SDS011;59602;52.142;5.408;2023-06-22T06:33:33;21.48;;;13.52;;
71763;SDS011;59602;52.142;5.408;2023-06-22T06:36:00;20.85;;;14.10;;
71763;SDS011;59602;52.142;5.408;2023-06-22T06:38:30;19.52;;;13.25;;
71763;SDS011;59602;52.142;5.408;2023-06-22T06:40:58;19.57;;;13.67;;
71763;SDS011;59602;52.142;5.408;2023-06-22T06:43:25;21.10;;;13.52;;
71763;SDS011;59602;52.142;5.408;2023-06-22T06:45:52;18.92;;;13.77;;
71763;SDS011;59602;52.142;5.408;2023-06-22T06:53:57;24.30;;;13.63;;
71763;SDS011;59602;52.142;5.408;2023-06-22T06:56:24;19.67;;;13.82;;
71763;SDS011;59602;52.142;5.408;2023-06-22T06:58:51;20.38;;;12.98;;
71763;SDS011;59602;52.142;5.408;2023-06-22T07:01:17;20.48;;;14.27;;
71763;SDS011;59602;52.142;5.408;2023-06-22T07:03:48;21.27;;;14.07;;
71763;SDS011;59602;52.142;5.408;2023-06-22T07:06:14;17.37;;;13.50;;
71763;SDS011;59602;52.142;5.408;2023-06-22T07:08:42;20.98;;;14.60;;
71763;SDS011;59602;52.142;5.408;2023-06-22T07:11:09;18.90;;;12.20;;
71763;SDS011;59602;52.142;5.408;2023-06-22T07:13:36;17.92;;;12.10;;
71763;SDS011;59602;52.142;5.408;2023-06-22T07:16:03;19.67;;;12.77;;
71763;SDS011;59602;52.142;5.408;2023-06-22T07:18:30;16.47;;;11.03;;
71763;SDS011;59602;52.142;5.408;2023-06-22T07:20:57;16.85;;;11.85;;
71763;SDS011;59602;52.142;5.408;2023-06-22T07:23:23;14.98;;;10.63;;
71763;SDS011;59602;52.142;5.408;2023-06-22T07:25:50;16.63;;;10.50;;
71763;SDS011;59602;52.142;5.408;2023-06-22T07:28:17;15.05;;;10.52;;
71763;SDS011;59602;52.142;5.408;2023-06-22T07:30:43;12.90;;;9.70;;
71763;SDS011;59602;52.142;5.408;2023-06-22T07:33:10;13.15;;;10.52;;
71763;SDS011;59602;52.142;5.408;2023-06-22T07:35:37;16.70;;;11.43;;
71763;SDS011;59602;52.142;5.408;2023-06-22T07:38:03;13.80;;;10.27;;
71763;SDS011;59602;52.142;5.408;2023-06-22T07:40:31;14.25;;;9.90;;
71763;SDS011;59602;52.142;5.408;2023-06-22T07:42:59;14.30;;;9.77;;
71763;SDS011;59602;52.142;5.408;2023-06-22T07:45:25;15.30;;;10.20;;
71763;SDS011;59602;52.142;5.408;2023-06-22T07:47:52;14.38;;;10.05;;
71763;SDS011;59602;52.142;5.408;2023-06-22T07:50:19;13.35;;;9.95;;
71763;SDS011;59602;52.142;5.408;2023-06-22T07:52:45;13.98;;;9.35;;
71763;SDS011;59602;52.142;5.408;2023-06-22T07:55:13;12.50;;;9.10;;
71763;SDS011;59602;52.142;5.408;2023-06-22T07:57:40;14.13;;;9.07;;
71763;SDS011;59602;52.142;5.408;2023-06-22T08:00:08;14.45;;;9.75;;
71763;SDS011;59602;52.142;5.408;2023-06-22T08:02:43;14.50;;;9.30;;
71763;SDS011;59602;52.142;5.408;2023-06-22T08:05:13;15.30;;;9.38;;
71763;SDS011;59602;52.142;5.408;2023-06-22T08:07:47;13.00;;;8.63;;
71763;SDS011;59602;52.142;5.408;2023-06-22T08:10:15;11.68;;;8.18;;
71763;SDS011;59602;52.142;5.408;2023-06-22T08:12:42;12.70;;;8.02;;
71763;SDS011;59602;52.142;5.408;2023-06-22T08:15:09;13.48;;;8.88;;
71763;SDS011;59602;52.142;5.408;2023-06-22T08:17:37;10.95;;;8.48;;
71763;SDS011;59602;52.142;5.408;2023-06-22T08:20:05;10.93;;;7.60;;
71763;SDS011;59602;52.142;5.408;2023-06-22T08:22:42;11.38;;;8.50;;
71763;SDS011;59602;52.142;5.408;2023-06-22T08:25:12;11.88;;;7.82;;
71763;SDS011;59602;52.142;5.408;2023-06-22T08:27:44;13.48;;;9.35;;
71763;SDS011;59602;52.142;5.408;2023-06-22T08:30:13;11.93;;;8.20;;
71763;SDS011;59602;52.142;5.408;2023-06-22T08:32:40;10.57;;;8.30;;
71763;SDS011;59602;52.142;5.408;2023-06-22T08:35:07;10.60;;;8.32;;
71763;SDS011;59602;52.142;5.408;2023-06-22T08:37:37;9.88;;;7.30;;
71763;SDS011;59602;52.142;5.408;2023-06-22T08:40:06;9.38;;;7.32;;
71763;SDS011;59602;52.142;5.408;2023-06-22T08:42:37;9.98;;;7.13;;
71763;SDS011;59602;52.142;5.408;2023-06-22T08:45:08;11.07;;;7.93;;
71763;SDS011;59602;52.142;5.408;2023-06-22T08:47:36;10.25;;;6.90;;
71763;SDS011;59602;52.142;5.408;2023-06-22T08:50:03;9.60;;;6.50;;
71763;SDS011;59602;52.142;5.408;2023-06-22T08:52:30;8.63;;;6.22;;
71763;SDS011;59602;52.142;5.408;2023-06-22T08:54:58;7.93;;;5.00;;
71763;SDS011;59602;52.142;5.408;2023-06-22T08:57:25;8.33;;;5.27;;
71763;SDS011;59602;52.142;5.408;2023-06-22T08:59:52;8.75;;;5.90;;
71763;SDS011;59602;52.142;5.408;2023-06-22T09:02:19;8.70;;;5.65;;
71763;SDS011;59602;52.142;5.408;2023-06-22T09:04:46;7.28;;;5.25;;
71763;SDS011;59602;52.142;5.408;2023-06-22T09:07:13;5.25;;;4.75;;
71763;SDS011;59602;52.142;5.408;2023-06-22T09:09:40;6.47;;;4.23;;
71763;SDS011;59602;52.142;5.408;2023-06-22T09:12:07;6.18;;;4.57;;
71763;SDS011;59602;52.142;5.408;2023-06-22T09:14:34;7.13;;;4.32;;
71763;SDS011;59602;52.142;5.408;2023-06-22T09:17:01;6.05;;;4.47;;
71763;SDS011;59602;52.142;5.408;2023-06-22T09:19:27;6.35;;;5.05;;
71763;SDS011;59602;52.142;5.408;2023-06-22T09:21:54;6.33;;;4.63;;
71763;SDS011;59602;52.142;5.408;2023-06-22T09:24:20;6.32;;;4.97;;
71763;SDS011;59602;52.142;5.408;2023-06-22T09:26:47;7.55;;;3.70;;
71763;SDS011;59602;52.142;5.408;2023-06-22T09:29:14;7.53;;;4.35;;
71763;SDS011;59602;52.142;5.408;2023-06-22T09:31:41;7.30;;;3.58;;
71763;SDS011;59602;52.142;5.408;2023-06-22T09:34:08;9.03;;;4.83;;
71763;SDS011;59602;52.142;5.408;2023-06-22T09:36:34;7.35;;;4.80;;
71763;SDS011;59602;52.142;5.408;2023-06-22T09:39:01;5.47;;;3.63;;
71763;SDS011;59602;52.142;5.408;2023-06-22T09:41:35;7.72;;;4.63;;
71763;SDS011;59602;52.142;5.408;2023-06-22T09:44:02;7.22;;;4.40;;
71763;SDS011;59602;52.142;5.408;2023-06-22T09:46:28;5.50;;;3.57;;
71763;SDS011;59602;52.142;5.408;2023-06-22T09:48:55;6.25;;;3.60;;
71763;SDS011;59602;52.142;5.408;2023-06-22T09:51:34;7.57;;;3.15;;
71763;SDS011;59602;52.142;5.408;2023-06-22T09:54:42;6.75;;;2.67;;
71763;SDS011;59602;52.142;5.408;2023-06-22T09:57:09;6.03;;;3.08;;
71763;SDS011;59602;52.142;5.408;2023-06-22T09:59:36;5.80;;;3.10;;
71763;SDS011;59602;52.142;5.408;2023-06-22T10:02:02;5.68;;;2.40;;
71763;SDS011;59602;52.142;5.408;2023-06-22T10:04:29;4.65;;;3.00;;
71763;SDS011;59602;52.142;5.408;2023-06-22T10:06:57;4.57;;;3.22;;
71763;SDS011;59602;52.142;5.408;2023-06-22T10:09:23;4.50;;;2.75;;
71763;SDS011;59602;52.142;5.408;2023-06-22T10:11:50;5.70;;;3.03;;
71763;SDS011;59602;52.142;5.408;2023-06-22T10:14:16;6.47;;;3.38;;
71763;SDS011;59602;52.142;5.408;2023-06-22T10:16:43;4.07;;;2.97;;
71763;SDS011;59602;52.142;5.408;2023-06-22T10:19:10;3.85;;;2.72;;
71763;SDS011;59602;52.142;5.408;2023-06-22T10:21:36;4.20;;;2.92;;
71763;SDS011;59602;52.142;5.408;2023-06-22T10:24:03;5.07;;;3.10;;
71763;SDS011;59602;52.142;5.408;2023-06-22T10:26:33;2.80;;;1.90;;
71763;SDS011;59602;52.142;5.408;2023-06-22T10:29:00;6.55;;;3.22;;
71763;SDS011;59602;52.142;5.408;2023-06-22T10:31:32;3.25;;;2.63;;
71763;SDS011;59602;52.142;5.408;2023-06-22T10:33:59;5.90;;;3.08;;
71763;SDS011;59602;52.142;5.408;2023-06-22T10:36:26;4.57;;;2.80;;
71763;SDS011;59602;52.142;5.408;2023-06-22T10:38:53;4.65;;;2.80;;
71763;SDS011;59602;52.142;5.408;2023-06-22T10:41:20;5.82;;;3.42;;
71763;SDS011;59602;52.142;5.408;2023-06-22T10:43:47;5.13;;;3.03;;
71763;SDS011;59602;52.142;5.408;2023-06-22T10:46:13;6.43;;;3.47;;
71763;SDS011;59602;52.142;5.408;2023-06-22T10:48:40;5.93;;;3.50;;
71763;SDS011;59602;52.142;5.408;2023-06-22T10:51:07;4.13;;;3.03;;
71763;SDS011;59602;52.142;5.408;2023-06-22T10:53:33;5.80;;;4.10;;
71763;SDS011;59602;52.142;5.408;2023-06-22T10:56:00;6.10;;;3.22;;
71763;SDS011;59602;52.142;5.408;2023-06-22T10:58:27;5.65;;;3.85;;
71763;SDS011;59602;52.142;5.408;2023-06-22T11:00:54;4.47;;;3.30;;
71763;SDS011;59602;52.142;5.408;2023-06-22T11:03:21;5.22;;;4.35;;
71763;SDS011;59602;52.142;5.408;2023-06-22T11:05:47;5.15;;;3.63;;
71763;SDS011;59602;52.142;5.408;2023-06-22T11:08:14;4.97;;;3.42;;
71763;SDS011;59602;52.142;5.408;2023-06-22T11:10:41;5.55;;;4.10;;
71763;SDS011;59602;52.142;5.408;2023-06-22T11:13:07;6.03;;;4.80;;
71763;SDS011;59602;52.142;5.408;2023-06-22T11:15:38;5.00;;;3.97;;
71763;SDS011;59602;52.142;5.408;2023-06-22T11:18:05;5.28;;;3.40;;
71763;SDS011;59602;52.142;5.408;2023-06-22T11:20:33;4.65;;;3.97;;
71763;SDS011;59602;52.142;5.408;2023-06-22T11:23:04;6.32;;;4.78;;
71763;SDS011;59602;52.142;5.408;2023-06-22T11:25:33;12.50;;;6.60;;
71763;SDS011;59602;52.142;5.408;2023-06-22T11:28:02;8.50;;;5.07;;
71763;SDS011;59602;52.142;5.408;2023-06-22T11:30:29;7.57;;;5.75;;
71763;SDS011;59602;52.142;5.408;2023-06-22T11:32:58;8.38;;;5.80;;
71763;SDS011;59602;52.142;5.408;2023-06-22T11:35:25;7.40;;;5.90;;
71763;SDS011;59602;52.142;5.408;2023-06-22T11:37:52;11.40;;;7.33;;
71763;SDS011;59602;52.142;5.408;2023-06-22T11:40:19;10.05;;;6.85;;
71763;SDS011;59602;52.142;5.408;2023-06-22T11:42:46;10.18;;;7.60;;
71763;SDS011;59602;52.142;5.408;2023-06-22T11:45:12;9.38;;;7.10;;
71763;SDS011;59602;52.142;5.408;2023-06-22T11:47:39;9.48;;;7.35;;
71763;SDS011;59602;52.142;5.408;2023-06-22T11:50:06;9.93;;;6.60;;
71763;SDS011;59602;52.142;5.408;2023-06-22T11:52:33;9.57;;;6.50;;
71763;SDS011;59602;52.142;5.408;2023-06-22T11:55:02;12.52;;;7.03;;
71763;SDS011;59602;52.142;5.408;2023-06-22T11:57:35;13.05;;;8.90;;
71763;SDS011;59602;52.142;5.408;2023-06-22T12:00:03;10.85;;;7.88;;
71763;SDS011;59602;52.142;5.408;2023-06-22T12:02:40;11.53;;;7.43;;
71763;SDS011;59602;52.142;5.408;2023-06-22T12:05:07;13.52;;;7.68;;
71763;SDS011;59602;52.142;5.408;2023-06-22T12:07:34;8.93;;;7.05;;
71763;SDS011;59602;52.142;5.408;2023-06-22T12:10:01;13.05;;;7.78;;
71763;SDS011;59602;52.142;5.408;2023-06-22T12:12:28;13.05;;;8.30;;
71763;SDS011;59602;52.142;5.408;2023-06-22T12:14:54;16.20;;;8.87;;
71763;SDS011;59602;52.142;5.408;2023-06-22T12:17:21;11.45;;;7.40;;
71763;SDS011;59602;52.142;5.408;2023-06-22T12:19:48;11.63;;;8.60;;
71763;SDS011;59602;52.142;5.408;2023-06-22T12:22:17;11.73;;;7.82;;
71763;SDS011;59602;52.142;5.408;2023-06-22T12:24:43;9.95;;;7.95;;
71763;SDS011;59602;52.142;5.408;2023-06-22T12:27:10;11.57;;;7.30;;
71763;SDS011;59602;52.142;5.408;2023-06-22T12:29:37;8.88;;;7.00;;
71763;SDS011;59602;52.142;5.408;2023-06-22T12:32:04;8.65;;;7.00;;
71763;SDS011;59602;52.142;5.408;2023-06-22T12:34:31;9.73;;;6.07;;
71763;SDS011;59602;52.142;5.408;2023-06-22T12:36:58;13.50;;;7.07;;
71763;SDS011;59602;52.142;5.408;2023-06-22T12:39:25;14.27;;;7.93;;
71763;SDS011;59602;52.142;5.408;2023-06-22T12:41:53;10.48;;;7.05;;
71763;SDS011;59602;52.142;5.408;2023-06-22T12:44:23;10.57;;;6.93;;
71763;SDS011;59602;52.142;5.408;2023-06-22T12:46:53;10.60;;;7.60;;
71763;SDS011;59602;52.142;5.408;2023-06-22T12:49:48;11.38;;;7.97;;
71763;SDS011;59602;52.142;5.408;2023-06-22T12:54:50;10.75;;;8.15;;
71763;SDS011;59602;52.142;5.408;2023-06-22T12:57:21;10.80;;;7.10;;
71763;SDS011;59602;52.142;5.408;2023-06-22T12:59:49;8.70;;;6.22;;
71763;SDS011;59602;52.142;5.408;2023-06-22T13:02:38;8.05;;;6.00;;
71763;SDS011;59602;52.142;5.408;2023-06-22T13:08:22;17.35;;;5.60;;
71763;SDS011;59602;52.142;5.408;2023-06-22T13:11:04;10.95;;;5.70;;
71763;SDS011;59602;52.142;5.408;2023-06-22T13:13:39;8.55;;;5.72;;
71763;SDS011;59602;52.142;5.408;2023-06-22T13:16:23;17.65;;;5.90;;
71763;SDS011;59602;52.142;5.408;2023-06-22T13:19:14;8.80;;;6.60;;
71763;SDS011;59602;52.142;5.408;2023-06-22T13:21:41;14.93;;;6.03;;
71763;SDS011;59602;52.142;5.408;2023-06-22T13:24:08;10.50;;;6.72;;
71763;SDS011;59602;52.142;5.408;2023-06-22T13:26:34;9.93;;;6.05;;
71763;SDS011;59602;52.142;5.408;2023-06-22T13:46:06;13.50;;;7.90;;
71763;SDS011;59602;52.142;5.408;2023-06-22T13:48:33;15.93;;;8.65;;
71763;SDS011;59602;52.142;5.408;2023-06-22T13:51:00;15.38;;;7.82;;
71763;SDS011;59602;52.142;5.408;2023-06-22T13:53:27;11.70;;;8.23;;
71763;SDS011;59602;52.142;5.408;2023-06-22T13:55:53;10.00;;;7.10;;
71763;SDS011;59602;52.142;5.408;2023-06-22T13:58:20;10.33;;;7.47;;
71763;SDS011;59602;52.142;5.408;2023-06-22T14:00:47;11.45;;;8.40;;
71763;SDS011;59602;52.142;5.408;2023-06-22T14:03:15;13.43;;;7.65;;
71763;SDS011;59602;52.142;5.408;2023-06-22T14:05:43;12.85;;;7.25;;
71763;SDS011;59602;52.142;5.408;2023-06-22T14:08:09;9.07;;;7.78;;
71763;SDS011;59602;52.142;5.408;2023-06-22T14:10:56;12.13;;;8.60;;
71763;SDS011;59602;52.142;5.408;2023-06-22T14:13:23;10.88;;;6.30;;
71763;SDS011;59602;52.142;5.408;2023-06-22T14:15:49;11.43;;;6.72;;
71763;SDS011;59602;52.142;5.408;2023-06-22T14:18:18;12.00;;;7.97;;
71763;SDS011;59602;52.142;5.408;2023-06-22T14:20:45;12.02;;;8.70;;
71763;SDS011;59602;52.142;5.408;2023-06-22T14:23:13;11.50;;;8.03;;
71763;SDS011;59602;52.142;5.408;2023-06-22T14:25:40;11.25;;;8.30;;
71763;SDS011;59602;52.142;5.408;2023-06-22T14:28:07;10.60;;;8.43;;
71763;SDS011;59602;52.142;5.408;2023-06-22T14:30:34;10.60;;;7.55;;
71763;SDS011;59602;52.142;5.408;2023-06-22T14:33:00;9.07;;;7.25;;
71763;SDS011;59602;52.142;5.408;2023-06-22T14:35:27;12.97;;;8.87;;
71763;SDS011;59602;52.142;5.408;2023-06-22T14:37:54;14.00;;;10.07;;
71763;SDS011;59602;52.142;5.408;2023-06-22T14:40:20;10.98;;;8.45;;
71763;SDS011;59602;52.142;5.408;2023-06-22T14:42:51;11.70;;;9.43;;
71763;SDS011;59602;52.142;5.408;2023-06-22T14:45:18;11.90;;;8.93;;
71763;SDS011;59602;52.142;5.408;2023-06-22T14:47:45;13.90;;;9.53;;
71763;SDS011;59602;52.142;5.408;2023-06-22T14:50:12;14.07;;;9.50;;
71763;SDS011;59602;52.142;5.408;2023-06-22T14:52:40;13.00;;;9.52;;
71763;SDS011;59602;52.142;5.408;2023-06-22T14:55:07;13.90;;;9.13;;
71763;SDS011;59602;52.142;5.408;2023-06-22T14:57:34;12.60;;;9.75;;
71763;SDS011;59602;52.142;5.408;2023-06-22T15:00:01;11.50;;;9.00;;
71763;SDS011;59602;52.142;5.408;2023-06-22T15:02:28;14.05;;;10.30;;
71763;SDS011;59602;52.142;5.408;2023-06-22T15:04:55;13.68;;;9.90;;
71763;SDS011;59602;52.142;5.408;2023-06-22T15:07:22;14.10;;;9.52;;
71763;SDS011;59602;52.142;5.408;2023-06-22T15:10:15;13.85;;;9.68;;
71763;SDS011;59602;52.142;5.408;2023-06-22T15:12:45;10.80;;;9.23;;
71763;SDS011;59602;52.142;5.408;2023-06-22T15:15:32;13.20;;;8.90;;
71763;SDS011;59602;52.142;5.408;2023-06-22T15:18:02;12.50;;;8.90;;